createdAt,value
2023-05-21T00:00:24.394Z,3.00
2023-05-21T00:02:51.589Z,2.90
2023-05-21T00:05:18.414Z,2.70
2023-05-21T00:07:46.509Z,2.60
2023-05-21T00:10:13.245Z,3.00
2023-05-21T00:12:41.152Z,2.80
2023-05-21T00:15:08.584Z,3.10
2023-05-21T00:17:36.229Z,2.80
2023-05-21T00:20:06.749Z,2.80
2023-05-21T00:22:35.654Z,2.50
2023-05-21T00:25:04.857Z,2.70
2023-05-21T00:27:32.005Z,2.80
2023-05-21T00:29:59.083Z,2.60
2023-05-21T00:32:25.826Z,2.50
2023-05-21T00:34:52.540Z,3.40
2023-05-21T00:37:20.191Z,2.50
2023-05-21T00:39:46.961Z,2.60
2023-05-21T00:42:17.771Z,2.40
2023-05-21T00:44:44.927Z,2.70
2023-05-21T00:47:12.976Z,2.40
2023-05-21T00:49:39.778Z,2.80
2023-05-21T00:52:06.965Z,3.30
2023-05-21T00:54:34.232Z,2.60
2023-05-21T00:57:01.140Z,2.40
2023-05-21T00:59:28.112Z,2.70
2023-05-21T01:01:55.642Z,2.90
2023-05-21T01:04:22.972Z,3.00
2023-05-21T01:06:52.761Z,2.30
2023-05-21T01:09:22.212Z,2.70
2023-05-21T01:11:50.663Z,2.70
2023-05-21T01:14:18.200Z,3.30
2023-05-21T01:16:47.519Z,3.60
2023-05-21T01:19:16.269Z,2.60
2023-05-21T01:21:50.874Z,3.00
2023-05-21T01:24:18.043Z,2.70
2023-05-21T01:26:48.352Z,3.10
2023-05-21T01:29:15.329Z,3.30
2023-05-21T01:31:49.726Z,2.30
2023-05-21T01:34:16.540Z,2.60
2023-05-21T01:36:46.670Z,2.70
2023-05-21T01:39:16.676Z,2.80
2023-05-21T01:41:44.325Z,2.90
2023-05-21T01:44:10.992Z,3.10
2023-05-21T01:46:38.332Z,2.50
2023-05-21T01:49:05.674Z,3.10
2023-05-21T01:51:32.926Z,2.80
2023-05-21T01:53:59.612Z,2.70
2023-05-21T01:56:27.845Z,2.90
2023-05-21T01:58:56.322Z,2.90
2023-05-21T02:01:23.510Z,3.20
2023-05-21T02:03:50.356Z,2.80
2023-05-21T02:06:17.096Z,3.10
2023-05-21T02:08:45.072Z,2.30
2023-05-21T02:11:11.855Z,2.90
2023-05-21T02:13:41.976Z,2.40
2023-05-21T02:16:11.323Z,2.70
2023-05-21T02:18:38.165Z,2.60
2023-05-21T02:21:05.472Z,3.50
2023-05-21T02:23:32.336Z,3.10
2023-05-21T02:25:59.102Z,3.00
2023-05-21T02:28:26.663Z,2.80
2023-05-21T02:30:53.565Z,3.30
2023-05-21T02:33:22.488Z,3.20
2023-05-21T02:35:49.372Z,2.80
2023-05-21T02:38:19.770Z,3.30
2023-05-21T02:40:46.429Z,2.80
2023-05-21T02:43:14.819Z,2.70
2023-05-21T02:45:43.366Z,3.20
2023-05-21T02:48:10.814Z,3.10
2023-05-21T02:50:39.806Z,2.60
2023-05-21T02:53:07.317Z,3.20
2023-05-21T02:55:35.210Z,2.90
2023-05-21T02:58:02.315Z,2.80
2023-05-21T03:00:29.188Z,2.80
2023-05-21T03:02:56.096Z,2.40
2023-05-21T03:05:23.809Z,2.60
2023-05-21T03:07:50.936Z,2.90
2023-05-21T03:10:17.669Z,3.00
2023-05-21T03:12:44.962Z,3.30
2023-05-21T03:15:14.962Z,3.00
2023-05-21T03:17:41.746Z,3.10
2023-05-21T03:20:15.594Z,3.00
2023-05-21T03:22:43.812Z,2.90
2023-05-21T03:25:11.652Z,3.70
2023-05-21T03:27:39.112Z,3.10
2023-05-21T03:30:09.328Z,4.00
2023-05-21T03:32:44.533Z,3.40
2023-05-21T03:35:11.112Z,3.40
2023-05-21T03:37:38.649Z,3.90
2023-05-21T03:40:06.731Z,3.90
2023-05-21T03:42:33.506Z,4.20
2023-05-21T03:45:00.214Z,3.40
2023-05-21T03:47:46.827Z,4.40
2023-05-21T03:50:14.038Z,4.20
2023-05-21T03:52:41.018Z,3.90
2023-05-21T03:55:08.214Z,3.60
2023-05-21T03:57:35.425Z,4.70
2023-05-21T04:00:03.601Z,4.10
2023-05-21T04:02:32.621Z,4.00
2023-05-21T04:04:59.455Z,3.50
2023-05-21T04:07:26.632Z,4.20
2023-05-21T04:09:53.428Z,4.60
2023-05-21T04:12:20.344Z,4.20
2023-05-21T04:14:48.023Z,4.90
2023-05-21T04:20:26.234Z,4.40
2023-05-21T04:22:52.963Z,4.80
2023-05-21T04:25:21.384Z,5.20
2023-05-21T04:27:49.426Z,5.10
2023-05-21T04:30:16.548Z,4.50
2023-05-21T04:32:45.198Z,5.00
2023-05-21T04:35:14.657Z,4.80
2023-05-21T04:37:41.588Z,4.70
2023-05-21T04:40:09.217Z,4.40
2023-05-21T04:42:36.030Z,4.80
2023-05-21T04:45:03.155Z,4.50
2023-05-21T04:47:34.784Z,4.30
2023-05-21T04:50:02.074Z,4.40
2023-05-21T04:52:28.822Z,4.40
2023-05-21T04:54:55.538Z,5.10
2023-05-21T04:57:23.992Z,4.50
2023-05-21T04:59:52.045Z,4.70
2023-05-21T05:02:18.717Z,5.40
2023-05-21T05:04:45.936Z,4.40
2023-05-21T05:07:13.087Z,5.00
2023-05-21T05:09:39.853Z,4.20
2023-05-21T05:12:07.131Z,4.80
2023-05-21T05:14:33.807Z,4.70
2023-05-21T05:17:01.083Z,4.50
2023-05-21T05:19:28.750Z,4.60
2023-05-21T05:21:55.582Z,4.70
2023-05-21T05:24:22.198Z,4.60
2023-05-21T05:26:49.064Z,4.40
2023-05-21T05:29:16.091Z,5.10
2023-05-21T05:31:42.862Z,4.30
2023-05-21T05:34:09.664Z,4.70
2023-05-21T05:36:36.243Z,4.30
2023-05-21T05:39:02.966Z,4.30
2023-05-21T05:41:29.943Z,4.70
2023-05-21T05:43:56.667Z,5.00
2023-05-21T05:46:25.425Z,5.20
2023-05-21T05:48:52.496Z,4.00
2023-05-21T05:51:19.226Z,4.90
2023-05-21T05:53:45.972Z,4.40
2023-05-21T05:56:12.767Z,4.10
2023-05-21T05:58:40.117Z,4.80
2023-05-21T06:01:09.712Z,4.20
2023-05-21T06:03:36.602Z,4.10
2023-05-21T06:06:10.994Z,4.00
2023-05-21T06:08:39.974Z,4.80
2023-05-21T06:11:06.952Z,4.50
2023-05-21T06:13:33.851Z,4.50
2023-05-21T06:16:03.344Z,3.70
2023-05-21T06:18:30.458Z,4.40
2023-05-21T06:20:57.136Z,4.50
2023-05-21T06:23:24.170Z,4.00
2023-05-21T06:25:50.913Z,4.10
2023-05-21T06:28:18.915Z,3.90
2023-05-21T06:30:45.872Z,3.30
2023-05-21T06:33:12.618Z,3.60
2023-05-21T06:35:39.913Z,3.10
2023-05-21T06:38:08.396Z,3.90
2023-05-21T06:40:35.696Z,3.80
2023-05-21T06:43:04.206Z,3.60
2023-05-21T06:45:57.136Z,3.90
2023-05-21T06:48:36.220Z,3.50
2023-05-21T06:51:03.253Z,3.50
2023-05-21T06:53:29.915Z,3.40
2023-05-21T06:55:56.607Z,3.60
2023-05-21T06:58:35.303Z,3.60
2023-05-21T07:01:02.317Z,3.30
2023-05-21T07:03:29.737Z,3.30
2023-05-21T07:05:57.234Z,3.60
2023-05-21T07:08:23.829Z,3.00
2023-05-21T07:10:50.821Z,3.00
2023-05-21T07:13:17.570Z,2.70
2023-05-21T07:15:44.540Z,3.00
2023-05-21T07:18:11.634Z,2.80
2023-05-21T07:20:39.141Z,2.60
2023-05-21T07:23:06.406Z,2.40
2023-05-21T07:25:36.031Z,2.50
2023-05-21T07:28:05.225Z,3.10
2023-05-21T07:30:33.437Z,2.60
2023-05-21T07:33:01.149Z,3.50
2023-05-21T07:35:28.645Z,2.60
2023-05-21T07:37:55.294Z,2.60
2023-05-21T07:40:21.955Z,3.00
2023-05-21T07:42:48.688Z,2.80
2023-05-21T07:45:15.430Z,2.80
2023-05-21T07:47:45.119Z,2.60
2023-05-21T07:50:12.326Z,2.90
2023-05-21T07:52:39.343Z,9.10
2023-05-21T07:55:06.864Z,3.20
2023-05-21T07:57:35.239Z,2.80
2023-05-21T08:00:12.497Z,3.40
2023-05-21T08:02:47.967Z,3.00
2023-05-21T08:05:15.981Z,2.90
2023-05-21T08:07:43.107Z,3.00
2023-05-21T08:10:09.942Z,2.80
2023-05-21T08:12:36.984Z,2.90
2023-05-21T08:15:05.689Z,3.00
2023-05-21T08:17:34.009Z,2.50
2023-05-21T08:20:00.713Z,2.90
2023-05-21T08:22:27.853Z,3.00
2023-05-21T08:24:54.889Z,2.80
2023-05-21T08:27:21.748Z,3.20
2023-05-21T08:29:48.355Z,2.80
2023-05-21T08:32:16.225Z,3.20
2023-05-21T08:34:43.233Z,2.80
2023-05-21T08:37:21.401Z,3.00
2023-05-21T08:40:00.183Z,3.00
2023-05-21T08:42:46.928Z,2.60
2023-05-21T08:45:37.540Z,2.50
2023-05-21T08:48:05.428Z,2.90
2023-05-21T08:50:32.769Z,3.10
2023-05-21T08:53:07.518Z,2.80
2023-05-21T08:55:43.215Z,2.80
2023-05-21T08:58:10.525Z,2.70
2023-05-21T09:00:38.753Z,2.90
2023-05-21T09:03:10.882Z,3.00
2023-05-21T09:05:41.688Z,3.00
2023-05-21T09:08:19.388Z,3.10
2023-05-21T09:11:00.297Z,3.00
2023-05-21T09:13:33.128Z,2.90
2023-05-21T09:16:03.611Z,3.10
2023-05-21T09:18:30.855Z,4.00
2023-05-21T09:21:27.141Z,2.90
2023-05-21T09:23:57.945Z,3.10
2023-05-21T09:26:25.932Z,2.80
2023-05-21T09:28:59.500Z,3.20
2023-05-21T09:31:26.673Z,3.00
2023-05-21T09:33:55.120Z,2.90
2023-05-21T09:36:22.404Z,3.10
2023-05-21T09:38:52.414Z,2.70
2023-05-21T09:41:22.153Z,2.70
2023-05-21T09:43:49.660Z,3.20
2023-05-21T09:46:16.485Z,3.40
2023-05-21T09:48:43.321Z,2.90
2023-05-21T09:51:15.554Z,3.10
2023-05-21T09:54:02.594Z,2.90
2023-05-21T09:56:31.588Z,2.90
2023-05-21T09:58:59.907Z,2.90
2023-05-21T10:01:26.801Z,2.80
2023-05-21T10:03:56.124Z,2.70
2023-05-21T10:06:30.566Z,2.60
2023-05-21T10:08:59.732Z,2.50
2023-05-21T10:11:30.210Z,3.40
2023-05-21T10:14:08.615Z,2.80
2023-05-21T10:16:36.053Z,2.90
2023-05-21T10:19:03.797Z,6.50
2023-05-21T10:21:30.567Z,4.40
2023-05-21T10:23:57.194Z,2.90
2023-05-21T10:26:24.236Z,3.50
2023-05-21T10:28:51.679Z,3.40
2023-05-21T10:31:18.640Z,3.10
2023-05-21T10:33:46.789Z,3.00
2023-05-21T10:36:15.884Z,3.00
2023-05-21T10:38:45.329Z,2.90
2023-05-21T10:41:12.007Z,2.60
2023-05-21T10:43:52.587Z,2.80
2023-05-21T10:46:46.646Z,3.30
2023-05-21T10:49:25.517Z,3.00
2023-05-21T10:51:58.018Z,2.90
2023-05-21T10:54:45.955Z,3.10
2023-05-21T10:57:21.661Z,2.80
2023-05-21T10:59:48.449Z,3.00
2023-05-21T11:02:15.638Z,2.80
2023-05-21T11:04:48.503Z,2.90
2023-05-21T11:07:16.384Z,2.60
2023-05-21T11:09:43.017Z,2.70
2023-05-21T11:12:09.804Z,2.60
2023-05-21T11:14:42.458Z,3.10
2023-05-21T11:17:15.294Z,2.80
2023-05-21T11:19:43.129Z,3.40
2023-05-21T11:22:19.689Z,3.40
2023-05-21T11:24:47.385Z,3.20
2023-05-21T11:27:37.010Z,2.70
2023-05-21T11:30:05.043Z,2.80
2023-05-21T11:32:39.490Z,2.80
2023-05-21T11:35:07.232Z,2.70
2023-05-21T11:37:35.496Z,3.00
2023-05-21T11:40:19.071Z,2.70
2023-05-21T11:42:51.418Z,3.10
2023-05-21T11:47:47.932Z,3.30
2023-05-21T11:50:15.048Z,3.20
2023-05-21T11:52:42.092Z,3.20
2023-05-21T11:55:08.906Z,2.80
2023-05-21T11:57:36.387Z,3.40
2023-05-21T12:00:14.168Z,3.30
2023-05-21T12:02:49.083Z,3.20
2023-05-21T12:05:16.312Z,3.30
2023-05-21T12:07:49.321Z,3.10
2023-05-21T12:10:16.182Z,3.40
2023-05-21T12:12:53.860Z,3.40
2023-05-21T12:15:24.019Z,3.20
2023-05-21T12:17:52.141Z,3.30
2023-05-21T12:20:20.519Z,2.80
2023-05-21T12:22:50.251Z,3.20
2023-05-21T12:25:19.395Z,3.60
2023-05-21T12:27:48.357Z,3.40
2023-05-21T12:30:15.104Z,3.20
2023-05-21T12:32:44.463Z,3.50
2023-05-21T12:35:22.191Z,3.40
2023-05-21T12:37:50.034Z,3.70
2023-05-21T12:40:17.302Z,3.10
2023-05-21T12:42:43.950Z,3.20
2023-05-21T12:45:10.926Z,3.10
2023-05-21T12:47:37.562Z,2.80
2023-05-21T12:50:08.763Z,3.20
2023-05-21T12:52:35.455Z,3.00
2023-05-21T12:55:02.186Z,3.40
2023-05-21T12:57:36.852Z,3.00
2023-05-21T13:00:08.348Z,3.40
2023-05-21T13:02:48.144Z,3.30
2023-05-21T13:05:16.822Z,3.70
2023-05-21T13:07:46.335Z,3.70
2023-05-21T13:10:13.346Z,3.90
2023-05-21T13:12:42.934Z,3.60
2023-05-21T13:15:14.960Z,3.50
2023-05-21T13:17:41.871Z,3.40
2023-05-21T13:20:11.578Z,3.30
2023-05-21T13:22:47.744Z,3.70
2023-05-21T13:25:23.948Z,3.00
2023-05-21T13:27:51.398Z,3.50
2023-05-21T13:30:21.967Z,3.10
2023-05-21T13:32:50.682Z,3.20
2023-05-21T13:35:18.542Z,2.90
2023-05-21T13:37:45.807Z,3.40
2023-05-21T13:40:16.867Z,2.80
2023-05-21T13:42:45.898Z,3.20
2023-05-21T13:45:14.305Z,3.20
2023-05-21T13:47:42.009Z,2.80
2023-05-21T13:50:09.189Z,2.90
2023-05-21T13:52:36.610Z,3.00
2023-05-21T13:55:03.977Z,3.40
2023-05-21T13:57:30.910Z,3.60
2023-05-21T13:59:58.459Z,3.70
2023-05-21T14:02:25.330Z,3.00
2023-05-21T14:04:52.209Z,3.00
2023-05-21T14:07:18.940Z,3.20
2023-05-21T14:09:47.034Z,2.80
2023-05-21T14:12:13.746Z,2.60
2023-05-21T14:14:41.450Z,3.40
2023-05-21T14:17:08.043Z,3.10
2023-05-21T14:19:35.259Z,2.90
2023-05-21T14:22:02.110Z,3.10
2023-05-21T14:24:28.936Z,3.10
2023-05-21T14:26:55.517Z,2.70
2023-05-21T14:29:22.195Z,2.50
2023-05-21T14:31:48.978Z,2.80
2023-05-21T14:34:16.144Z,3.10
2023-05-21T14:36:42.799Z,2.90
2023-05-21T14:39:09.573Z,3.10
2023-05-21T14:41:38.316Z,2.90
2023-05-21T14:44:04.904Z,2.80
2023-05-21T14:46:31.785Z,3.10
2023-05-21T14:48:59.667Z,2.80
2023-05-21T14:51:26.778Z,3.10
2023-05-21T14:53:54.015Z,2.80
2023-05-21T14:56:21.324Z,3.10
2023-05-21T14:58:47.950Z,2.80
2023-05-21T15:01:14.586Z,2.80
2023-05-21T15:03:41.581Z,3.00
2023-05-21T15:06:08.306Z,3.40
2023-05-21T15:08:35.201Z,3.10
2023-05-21T15:11:01.879Z,3.10
2023-05-21T15:13:29.187Z,3.40
2023-05-21T15:15:56.494Z,3.40
2023-05-21T15:18:24.208Z,3.70
2023-05-21T15:20:50.891Z,3.50
2023-05-21T15:23:18.120Z,3.30
2023-05-21T15:25:45.166Z,3.50
2023-05-21T15:28:12.212Z,3.30
2023-05-21T15:30:39.630Z,3.30
2023-05-21T15:33:06.342Z,3.40
2023-05-21T15:35:34.921Z,3.20
2023-05-21T15:38:02.105Z,3.00
2023-05-21T15:40:28.964Z,3.00
2023-05-21T15:42:55.820Z,3.10
2023-05-21T15:45:23.745Z,3.30
2023-05-21T15:47:50.821Z,3.40
2023-05-21T15:50:17.547Z,2.90
2023-05-21T15:52:44.129Z,3.20
2023-05-21T15:55:10.896Z,3.50
2023-05-21T15:57:37.554Z,3.90
2023-05-21T16:00:04.791Z,3.40
2023-05-21T16:02:37.684Z,3.90
2023-05-21T16:05:06.994Z,3.60
2023-05-21T16:07:35.124Z,3.40
2023-05-21T16:10:04.103Z,3.40
2023-05-21T16:12:31.230Z,3.50
2023-05-21T16:14:58.026Z,4.20
2023-05-21T16:17:25.105Z,3.60
2023-05-21T16:19:52.151Z,3.70
2023-05-21T16:22:22.640Z,4.20
2023-05-21T16:24:49.950Z,3.60
2023-05-21T16:27:16.719Z,4.40
2023-05-21T16:29:43.839Z,4.60
2023-05-21T16:32:12.623Z,4.90
2023-05-21T16:34:39.533Z,5.10
2023-05-21T16:37:45.168Z,5.20
2023-05-21T16:40:13.050Z,4.50
2023-05-21T16:42:40.646Z,4.60
2023-05-21T16:45:08.611Z,5.00
2023-05-21T16:47:35.626Z,4.40
2023-05-21T16:50:02.571Z,5.10
2023-05-21T16:52:29.541Z,4.90
2023-05-21T16:54:56.812Z,4.90
2023-05-21T16:57:23.831Z,5.10
2023-05-21T16:59:50.770Z,5.20
2023-05-21T17:02:17.804Z,4.90
2023-05-21T17:04:44.736Z,5.20
2023-05-21T17:07:11.752Z,4.60
2023-05-21T17:09:38.912Z,4.70
2023-05-21T17:12:06.345Z,4.40
2023-05-21T17:14:35.425Z,4.00
2023-05-21T17:17:03.666Z,4.20
2023-05-21T17:19:30.875Z,4.00
2023-05-21T17:21:58.051Z,3.70
2023-05-21T17:24:24.972Z,4.10
2023-05-21T17:26:53.100Z,3.20
2023-05-21T17:29:20.017Z,3.50
2023-05-21T17:31:46.959Z,3.60
2023-05-21T17:34:13.770Z,3.80
2023-05-21T17:36:40.624Z,3.00
2023-05-21T17:39:07.580Z,4.30
2023-05-21T17:41:34.921Z,3.30
2023-05-21T17:44:02.364Z,3.30
2023-05-21T17:46:29.211Z,3.80
2023-05-21T17:48:56.219Z,3.90
2023-05-21T17:51:23.245Z,5.30
2023-05-21T17:53:50.108Z,3.80
2023-05-21T17:56:17.110Z,4.10
2023-05-21T17:58:43.962Z,3.90
2023-05-21T18:01:11.546Z,3.40
2023-05-21T18:03:38.426Z,3.70
2023-05-21T18:06:07.426Z,3.80
2023-05-21T18:08:35.774Z,3.40
2023-05-21T18:11:02.584Z,3.70
2023-05-21T18:13:29.789Z,3.20
2023-05-21T18:15:56.827Z,3.60
2023-05-21T18:18:23.626Z,3.50
2023-05-21T18:20:51.730Z,3.30
2023-05-21T18:23:18.598Z,3.50
2023-05-21T18:25:45.544Z,3.50
2023-05-21T18:28:12.504Z,3.50
2023-05-21T18:30:39.469Z,3.60
2023-05-21T18:33:08.535Z,3.50
2023-05-21T18:35:35.453Z,3.90
2023-05-21T18:38:04.165Z,3.60
2023-05-21T18:40:33.298Z,3.40
2023-05-21T18:43:00.813Z,3.80
2023-05-21T18:45:27.966Z,6.20
2023-05-21T18:47:56.970Z,5.00
2023-05-21T18:50:23.783Z,3.60
2023-05-21T18:52:53.409Z,3.80
2023-05-21T18:55:20.422Z,3.70
2023-05-21T18:57:47.401Z,3.70
2023-05-21T19:00:14.398Z,4.00
2023-05-21T19:02:43.177Z,3.70
2023-05-21T19:05:10.202Z,3.80
2023-05-21T19:07:37.077Z,4.00
2023-05-21T19:10:04.471Z,4.30
2023-05-21T19:12:31.544Z,4.00
2023-05-21T19:14:58.501Z,3.70
2023-05-21T19:17:25.522Z,3.30
2023-05-21T19:19:56.014Z,3.60
2023-05-21T19:22:24.269Z,4.10
2023-05-21T19:24:51.215Z,5.10
2023-05-21T19:27:18.590Z,3.70
2023-05-21T19:29:45.583Z,4.20
2023-05-21T19:32:12.555Z,4.80
2023-05-21T19:34:39.462Z,4.20
2023-05-21T19:37:07.236Z,5.10
2023-05-21T19:39:38.339Z,4.90
2023-05-21T19:42:05.575Z,4.80
2023-05-21T19:44:32.438Z,4.90
2023-05-21T19:47:00.160Z,4.90
2023-05-21T19:49:27.381Z,5.50
2023-05-21T19:51:55.051Z,5.80
2023-05-21T19:54:22.709Z,6.20
2023-05-21T19:56:49.858Z,5.70
2023-05-21T19:59:16.757Z,5.90
2023-05-21T20:01:44.306Z,5.70
2023-05-21T20:04:11.523Z,5.50
2023-05-21T20:06:38.465Z,5.70
2023-05-21T20:09:05.972Z,6.80
2023-05-21T20:11:33.166Z,6.70
2023-05-21T20:14:02.102Z,5.90
2023-05-21T20:16:30.001Z,6.20
2023-05-21T20:18:58.444Z,7.00
2023-05-21T20:21:25.623Z,5.70
2023-05-21T20:23:53.085Z,6.00
2023-05-21T20:26:19.972Z,6.40
2023-05-21T20:28:46.826Z,6.60
2023-05-21T20:31:13.855Z,6.70
2023-05-21T20:33:43.623Z,6.70
2023-05-21T20:36:11.451Z,6.80
2023-05-21T20:38:38.511Z,6.00
2023-05-21T20:41:05.557Z,6.00
2023-05-21T20:43:33.036Z,6.80
2023-05-21T20:46:00.032Z,7.10
2023-05-21T20:48:29.216Z,6.60
2023-05-21T20:50:57.583Z,6.30
2023-05-21T20:53:25.218Z,6.20
2023-05-21T20:55:54.708Z,6.40
2023-05-21T20:58:22.692Z,6.40
2023-05-21T21:00:50.400Z,6.70
2023-05-21T21:03:18.589Z,6.50
2023-05-21T21:05:45.503Z,6.50
2023-05-21T21:08:12.392Z,6.70
2023-05-21T21:10:41.715Z,5.70
2023-05-21T21:13:09.125Z,6.40
2023-05-21T21:15:36.488Z,6.80
2023-05-21T21:18:03.557Z,6.50
2023-05-21T21:20:31.165Z,7.00
2023-05-21T21:22:57.912Z,7.00
2023-05-21T21:25:24.714Z,6.60
2023-05-21T21:27:51.613Z,6.30
2023-05-21T21:30:19.154Z,6.60
2023-05-21T21:32:47.765Z,6.40
2023-05-21T21:35:14.752Z,7.00
2023-05-21T21:37:41.629Z,7.20
2023-05-21T21:40:09.289Z,6.40
2023-05-21T21:42:36.485Z,6.70
2023-05-21T21:45:05.939Z,6.80
2023-05-21T21:47:33.745Z,6.70
2023-05-21T21:50:01.186Z,6.80
2023-05-21T21:52:28.115Z,6.80
2023-05-21T21:54:57.976Z,6.80
2023-05-21T21:57:27.513Z,7.20
2023-05-21T21:59:54.428Z,6.90
2023-05-21T22:02:21.281Z,7.40
2023-05-21T22:04:48.171Z,7.80
2023-05-21T22:07:18.489Z,7.10
2023-05-21T22:09:45.789Z,7.50
2023-05-21T22:12:12.928Z,6.30
2023-05-21T22:14:39.775Z,6.00
2023-05-21T22:17:08.493Z,7.50
2023-05-21T22:19:35.981Z,6.50
2023-05-21T22:22:04.512Z,6.10
2023-05-21T22:24:33.206Z,7.10
2023-05-21T22:27:00.615Z,7.40
2023-05-21T22:29:27.481Z,7.10
2023-05-21T22:31:54.296Z,6.70
2023-05-21T22:34:22.299Z,6.90
2023-05-21T22:36:49.093Z,6.20
2023-05-21T22:39:15.944Z,6.80
2023-05-21T22:41:42.702Z,6.60
2023-05-21T22:44:09.590Z,7.00
2023-05-21T22:46:36.556Z,6.30
2023-05-21T22:49:03.470Z,7.20
2023-05-21T22:51:37.665Z,6.60
2023-05-21T22:54:04.854Z,7.70
2023-05-21T22:56:31.668Z,7.40
2023-05-21T22:59:00.341Z,7.40
2023-05-21T23:01:27.348Z,6.70
2023-05-21T23:03:54.270Z,6.40
2023-05-21T23:06:21.058Z,6.90
2023-05-21T23:08:47.908Z,7.10
2023-05-21T23:11:14.793Z,6.80
2023-05-21T23:13:41.636Z,6.50
2023-05-21T23:16:08.667Z,6.70
2023-05-21T23:18:35.465Z,6.90
2023-05-21T23:21:02.507Z,6.50
2023-05-21T23:23:29.528Z,7.00
2023-05-21T23:25:57.822Z,6.80
2023-05-21T23:28:25.567Z,6.20
2023-05-21T23:30:52.468Z,6.30
2023-05-21T23:33:19.554Z,7.20
2023-05-21T23:35:46.407Z,7.20
2023-05-21T23:38:13.311Z,6.50
2023-05-21T23:40:40.495Z,6.80
2023-05-21T23:43:07.675Z,6.60
2023-05-21T23:45:34.546Z,6.80
2023-05-21T23:48:01.511Z,7.20
2023-05-21T23:50:28.424Z,6.60
2023-05-21T23:52:55.376Z,6.80
2023-05-21T23:55:22.233Z,7.20
2023-05-21T23:57:49.114Z,6.10
